sensor_id;sensor_type;location;lat;lon;timestamp;pressure;altitude;pressure_sealevel;temperature;humidity
21658;BME280;10990;48.174;9.782;2023-04-23T00:00:56;94316.88;;;13.02;100.00
21658;BME280;10990;48.174;9.782;2023-04-23T00:03:26;94268.72;;;13.06;100.00
21658;BME280;10990;48.174;9.782;2023-04-23T00:05:57;94231.94;;;13.02;100.00
21658;BME280;10990;48.174;9.782;2023-04-23T00:08:25;94218.44;;;12.91;100.00
21658;BME280;10990;48.174;9.782;2023-04-23T00:10:53;94191.09;;;12.97;100.00
21658;BME280;10990;48.174;9.782;2023-04-23T00:13:20;94176.16;;;12.83;100.00
21658;BME280;10990;48.174;9.782;2023-04-23T00:15:49;94162.84;;;12.69;100.00
21658;BME280;10990;48.174;9.782;2023-04-23T00:18:15;94154.94;;;12.83;100.00
21658;BME280;10990;48.174;9.782;2023-04-23T00:20:42;94149.00;;;12.81;100.00
21658;BME280;10990;48.174;9.782;2023-04-23T00:23:09;94156.19;;;12.87;100.00
21658;BME280;10990;48.174;9.782;2023-04-23T00:25:36;94163.72;;;12.76;100.00
21658;BME280;10990;48.174;9.782;2023-04-23T00:28:03;94176.56;;;12.73;100.00
21658;BME280;10990;48.174;9.782;2023-04-23T00:30:29;94174.94;;;12.78;100.00
21658;BME280;10990;48.174;9.782;2023-04-23T00:32:58;94165.97;;;12.79;100.00
21658;BME280;10990;48.174;9.782;2023-04-23T00:35:25;94169.19;;;12.75;100.00
21658;BME280;10990;48.174;9.782;2023-04-23T00:37:52;94167.19;;;12.84;100.00
21658;BME280;10990;48.174;9.782;2023-04-23T00:40:20;94172.94;;;12.87;100.00
21658;BME280;10990;48.174;9.782;2023-04-23T00:42:49;94163.94;;;12.82;100.00
21658;BME280;10990;48.174;9.782;2023-04-23T00:45:16;94137.63;;;12.87;100.00
21658;BME280;10990;48.174;9.782;2023-04-23T00:47:44;94116.81;;;12.97;100.00
21658;BME280;10990;48.174;9.782;2023-04-23T00:50:14;94120.50;;;12.96;100.00
21658;BME280;10990;48.174;9.782;2023-04-23T00:52:40;94129.03;;;12.85;100.00
21658;BME280;10990;48.174;9.782;2023-04-23T00:55:07;94143.94;;;12.79;100.00
21658;BME280;10990;48.174;9.782;2023-04-23T00:57:35;94144.91;;;12.65;100.00
21658;BME280;10990;48.174;9.782;2023-04-23T01:00:05;94131.06;;;12.83;100.00
21658;BME280;10990;48.174;9.782;2023-04-23T01:02:34;94116.38;;;12.80;100.00
21658;BME280;10990;48.174;9.782;2023-04-23T01:05:03;94082.28;;;12.77;100.00
21658;BME280;10990;48.174;9.782;2023-04-23T01:07:33;94061.88;;;12.71;100.00
21658;BME280;10990;48.174;9.782;2023-04-23T01:10:01;94039.25;;;12.82;100.00
21658;BME280;10990;48.174;9.782;2023-04-23T01:12:28;94029.84;;;12.86;100.00
21658;BME280;10990;48.174;9.782;2023-04-23T01:14:55;94019.44;;;12.77;100.00
21658;BME280;10990;48.174;9.782;2023-04-23T01:17:22;93997.97;;;12.52;100.00
21658;BME280;10990;48.174;9.782;2023-04-23T01:19:49;93940.25;;;12.54;100.00
21658;BME280;10990;48.174;9.782;2023-04-23T01:22:17;93935.38;;;12.45;100.00
21658;BME280;10990;48.174;9.782;2023-04-23T01:24:44;93924.34;;;12.74;100.00
21658;BME280;10990;48.174;9.782;2023-04-23T01:27:11;93951.28;;;12.58;100.00
21658;BME280;10990;48.174;9.782;2023-04-23T01:29:39;93975.56;;;12.48;100.00
21658;BME280;10990;48.174;9.782;2023-04-23T01:32:06;93988.00;;;12.61;100.00
21658;BME280;10990;48.174;9.782;2023-04-23T01:34:37;94020.25;;;12.91;100.00
21658;BME280;10990;48.174;9.782;2023-04-23T01:37:04;94049.25;;;12.99;100.00
21658;BME280;10990;48.174;9.782;2023-04-23T01:39:32;94085.56;;;12.79;100.00
21658;BME280;10990;48.174;9.782;2023-04-23T01:42:00;94059.63;;;12.74;100.00
21658;BME280;10990;48.174;9.782;2023-04-23T01:44:27;94039.22;;;12.75;100.00
21658;BME280;10990;48.174;9.782;2023-04-23T01:46:54;94018.84;;;12.95;100.00
21658;BME280;10990;48.174;9.782;2023-04-23T01:49:21;94030.06;;;12.91;100.00
21658;BME280;10990;48.174;9.782;2023-04-23T01:51:48;94022.91;;;12.85;100.00
21658;BME280;10990;48.174;9.782;2023-04-23T01:54:15;94009.03;;;12.83;100.00
21658;BME280;10990;48.174;9.782;2023-04-23T01:56:43;93979.84;;;12.83;100.00
21658;BME280;10990;48.174;9.782;2023-04-23T01:59:11;93958.41;;;12.77;100.00
21658;BME280;10990;48.174;9.782;2023-04-23T02:01:41;93928.41;;;12.84;100.00
21658;BME280;10990;48.174;9.782;2023-04-23T02:04:11;93920.88;;;12.61;100.00
21658;BME280;10990;48.174;9.782;2023-04-23T02:06:38;93882.13;;;12.66;100.00
21658;BME280;10990;48.174;9.782;2023-04-23T02:09:05;93865.38;;;12.72;100.00
21658;BME280;10990;48.174;9.782;2023-04-23T02:11:31;93818.69;;;12.58;100.00
21658;BME280;10990;48.174;9.782;2023-04-23T02:14:00;93786.28;;;12.56;100.00
21658;BME280;10990;48.174;9.782;2023-04-23T02:16:28;93744.91;;;12.42;100.00
21658;BME280;10990;48.174;9.782;2023-04-23T02:18:55;93667.38;;;12.53;100.00
21658;BME280;10990;48.174;9.782;2023-04-23T02:21:23;93610.66;;;12.54;100.00
21658;BME280;10990;48.174;9.782;2023-04-23T02:23:50;93590.88;;;12.56;100.00
21658;BME280;10990;48.174;9.782;2023-04-23T02:26:17;93568.88;;;12.49;100.00
21658;BME280;10990;48.174;9.782;2023-04-23T02:28:44;93534.25;;;12.38;100.00
21658;BME280;10990;48.174;9.782;2023-04-23T02:31:12;93495.97;;;12.33;100.00
21658;BME280;10990;48.174;9.782;2023-04-23T02:33:40;93441.13;;;12.34;100.00
21658;BME280;10990;48.174;9.782;2023-04-23T02:36:08;93398.91;;;12.32;100.00
21658;BME280;10990;48.174;9.782;2023-04-23T02:38:36;93369.72;;;12.39;100.00
21658;BME280;10990;48.174;9.782;2023-04-23T02:41:05;93326.28;;;12.40;100.00
21658;BME280;10990;48.174;9.782;2023-04-23T02:43:32;93291.97;;;12.45;100.00
21658;BME280;10990;48.174;9.782;2023-04-23T02:46:00;93265.66;;;12.44;100.00
21658;BME280;10990;48.174;9.782;2023-04-23T02:48:35;93226.78;;;12.38;100.00
21658;BME280;10990;48.174;9.782;2023-04-23T02:51:03;93184.25;;;12.32;100.00
21658;BME280;10990;48.174;9.782;2023-04-23T02:53:30;93153.97;;;12.22;100.00
21658;BME280;10990;48.174;9.782;2023-04-23T02:55:57;93102.25;;;12.19;100.00
21658;BME280;10990;48.174;9.782;2023-04-23T02:58:24;93050.88;;;12.20;100.00
21658;BME280;10990;48.174;9.782;2023-04-23T03:00:53;93020.94;;;12.20;100.00
21658;BME280;10990;48.174;9.782;2023-04-23T03:03:20;92987.94;;;12.16;100.00
21658;BME280;10990;48.174;9.782;2023-04-23T03:05:53;92962.50;;;12.15;100.00
21658;BME280;10990;48.174;9.782;2023-04-23T03:08:20;92924.13;;;12.05;100.00
21658;BME280;10990;48.174;9.782;2023-04-23T03:10:47;92898.16;;;11.96;100.00
21658;BME280;10990;48.174;9.782;2023-04-23T03:13:14;92849.03;;;12.11;100.00
21658;BME280;10990;48.174;9.782;2023-04-23T03:15:41;92832.22;;;12.06;100.00
21658;BME280;10990;48.174;9.782;2023-04-23T03:18:08;92797.91;;;12.11;100.00
21658;BME280;10990;48.174;9.782;2023-04-23T03:20:35;92776.00;;;12.04;100.00
21658;BME280;10990;48.174;9.782;2023-04-23T03:23:04;92759.06;;;12.05;100.00
21658;BME280;10990;48.174;9.782;2023-04-23T03:25:31;92745.94;;;11.98;100.00
21658;BME280;10990;48.174;9.782;2023-04-23T03:27:58;92724.44;;;11.95;100.00
21658;BME280;10990;48.174;9.782;2023-04-23T03:30:28;92744.44;;;11.91;100.00
21658;BME280;10990;48.174;9.782;2023-04-23T03:32:55;92758.81;;;11.83;100.00
21658;BME280;10990;48.174;9.782;2023-04-23T03:35:22;92873.22;;;11.85;100.00
21658;BME280;10990;48.174;9.782;2023-04-23T03:37:51;92852.66;;;11.87;100.00
21658;BME280;10990;48.174;9.782;2023-04-23T03:40:20;92819.97;;;11.93;100.00
21658;BME280;10990;48.174;9.782;2023-04-23T03:42:50;92795.13;;;11.94;100.00
21658;BME280;10990;48.174;9.782;2023-04-23T03:45:22;92797.94;;;11.81;100.00
21658;BME280;10990;48.174;9.782;2023-04-23T03:47:49;92756.38;;;11.81;100.00
21658;BME280;10990;48.174;9.782;2023-04-23T03:50:17;92734.69;;;11.91;100.00
21658;BME280;10990;48.174;9.782;2023-04-23T03:52:51;92740.34;;;11.64;100.00
21658;BME280;10990;48.174;9.782;2023-04-23T03:55:39;92714.13;;;11.75;100.00
21658;BME280;10990;48.174;9.782;2023-04-23T03:58:06;92693.06;;;11.68;100.00
21658;BME280;10990;48.174;9.782;2023-04-23T04:00:44;92667.56;;;11.85;100.00
21658;BME280;10990;48.174;9.782;2023-04-23T04:03:11;92647.97;;;11.86;100.00
21658;BME280;10990;48.174;9.782;2023-04-23T04:05:38;92652.53;;;11.79;100.00
21658;BME280;10990;48.174;9.782;2023-04-23T04:08:05;92613.19;;;11.83;100.00
21658;BME280;10990;48.174;9.782;2023-04-23T04:10:32;92604.09;;;11.79;100.00
21658;BME280;10990;48.174;9.782;2023-04-23T04:13:00;92591.66;;;11.67;100.00
21658;BME280;10990;48.174;9.782;2023-04-23T04:15:27;92560.16;;;11.66;100.00
21658;BME280;10990;48.174;9.782;2023-04-23T04:17:53;92509.38;;;11.69;100.00
21658;BME280;10990;48.174;9.782;2023-04-23T04:20:20;92505.78;;;11.75;100.00
21658;BME280;10990;48.174;9.782;2023-04-23T04:22:47;92480.38;;;11.86;100.00
21658;BME280;10990;48.174;9.782;2023-04-23T04:25:14;92467.44;;;11.89;100.00
21658;BME280;10990;48.174;9.782;2023-04-23T04:27:40;92483.81;;;11.75;100.00
21658;BME280;10990;48.174;9.782;2023-04-23T04:30:10;92465.56;;;11.61;100.00
21658;BME280;10990;48.174;9.782;2023-04-23T04:32:37;92459.81;;;11.53;100.00
21658;BME280;10990;48.174;9.782;2023-04-23T04:35:05;92447.81;;;11.62;100.00
21658;BME280;10990;48.174;9.782;2023-04-23T04:37:32;92437.25;;;11.62;100.00
21658;BME280;10990;48.174;9.782;2023-04-23T04:39:59;92434.78;;;11.72;100.00
21658;BME280;10990;48.174;9.782;2023-04-23T04:42:26;92419.34;;;11.81;100.00
21658;BME280;10990;48.174;9.782;2023-04-23T04:44:53;92413.78;;;11.82;100.00
21658;BME280;10990;48.174;9.782;2023-04-23T04:47:24;92425.94;;;11.66;100.00
21658;BME280;10990;48.174;9.782;2023-04-23T04:49:51;92411.53;;;11.74;100.00
21658;BME280;10990;48.174;9.782;2023-04-23T04:52:21;92401.97;;;11.73;100.00
21658;BME280;10990;48.174;9.782;2023-04-23T04:54:48;92403.41;;;11.64;100.00
21658;BME280;10990;48.174;9.782;2023-04-23T04:57:15;92408.97;;;11.51;100.00
21658;BME280;10990;48.174;9.782;2023-04-23T04:59:41;92374.88;;;11.54;100.00
21658;BME280;10990;48.174;9.782;2023-04-23T05:02:08;92360.72;;;11.60;100.00
21658;BME280;10990;48.174;9.782;2023-04-23T05:04:36;92352.91;;;11.54;100.00
21658;BME280;10990;48.174;9.782;2023-04-23T05:07:03;92336.16;;;11.48;100.00
21658;BME280;10990;48.174;9.782;2023-04-23T05:09:30;92318.88;;;11.57;100.00
21658;BME280;10990;48.174;9.782;2023-04-23T05:11:56;92298.16;;;11.54;100.00
21658;BME280;10990;48.174;9.782;2023-04-23T05:14:24;92293.09;;;11.53;100.00
21658;BME280;10990;48.174;9.782;2023-04-23T05:16:51;92291.03;;;11.55;100.00
21658;BME280;10990;48.174;9.782;2023-04-23T05:19:17;92279.09;;;11.52;100.00
21658;BME280;10990;48.174;9.782;2023-04-23T05:21:46;92276.44;;;11.52;100.00
21658;BME280;10990;48.174;9.782;2023-04-23T05:24:13;92271.94;;;11.53;100.00
21658;BME280;10990;48.174;9.782;2023-04-23T05:26:39;92266.25;;;11.61;100.00
21658;BME280;10990;48.174;9.782;2023-04-23T05:29:06;92262.88;;;11.65;100.00
21658;BME280;10990;48.174;9.782;2023-04-23T05:31:33;92258.41;;;11.66;100.00
21658;BME280;10990;48.174;9.782;2023-04-23T05:34:00;92263.13;;;11.64;100.00
21658;BME280;10990;48.174;9.782;2023-04-23T05:36:26;92264.19;;;11.63;100.00
21658;BME280;10990;48.174;9.782;2023-04-23T05:38:55;92253.34;;;11.64;100.00
21658;BME280;10990;48.174;9.782;2023-04-23T05:41:21;92251.84;;;11.69;100.00
21658;BME280;10990;48.174;9.782;2023-04-23T05:43:48;92247.47;;;11.79;100.00
21658;BME280;10990;48.174;9.782;2023-04-23T05:46:15;92250.69;;;11.81;100.00
21658;BME280;10990;48.174;9.782;2023-04-23T05:48:42;92243.03;;;11.97;100.00
21658;BME280;10990;48.174;9.782;2023-04-23T05:51:08;92242.75;;;12.15;100.00
21658;BME280;10990;48.174;9.782;2023-04-23T05:53:35;92257.47;;;12.06;100.00
21658;BME280;10990;48.174;9.782;2023-04-23T05:56:04;92274.16;;;12.06;100.00
21658;BME280;10990;48.174;9.782;2023-04-23T05:58:30;92271.28;;;12.08;100.00
21658;BME280;10990;48.174;9.782;2023-04-23T06:00:57;92296.00;;;11.97;100.00
21658;BME280;10990;48.174;9.782;2023-04-23T06:03:24;92296.94;;;12.07;100.00
21658;BME280;10990;48.174;9.782;2023-04-23T06:05:51;92302.00;;;12.09;100.00
21658;BME280;10990;48.174;9.782;2023-04-23T06:08:18;92308.81;;;12.05;100.00
21658;BME280;10990;48.174;9.782;2023-04-23T06:10:45;92315.16;;;12.04;100.00
21658;BME280;10990;48.174;9.782;2023-04-23T06:13:14;92309.16;;;12.08;100.00
21658;BME280;10990;48.174;9.782;2023-04-23T06:15:41;92321.13;;;12.11;100.00
21658;BME280;10990;48.174;9.782;2023-04-23T06:18:08;92340.13;;;12.08;100.00
21658;BME280;10990;48.174;9.782;2023-04-23T06:20:35;92347.44;;;12.01;100.00
21658;BME280;10990;48.174;9.782;2023-04-23T06:23:01;92353.59;;;12.06;100.00
21658;BME280;10990;48.174;9.782;2023-04-23T06:25:28;92348.22;;;12.18;100.00
21658;BME280;10990;48.174;9.782;2023-04-23T06:27:55;92361.72;;;12.17;100.00
21658;BME280;10990;48.174;9.782;2023-04-23T06:30:28;92370.38;;;12.12;100.00
21658;BME280;10990;48.174;9.782;2023-04-23T06:32:55;92383.63;;;12.12;100.00
21658;BME280;10990;48.174;9.782;2023-04-23T06:35:22;92394.00;;;12.14;100.00
21658;BME280;10990;48.174;9.782;2023-04-23T06:37:48;92401.53;;;12.22;100.00
21658;BME280;10990;48.174;9.782;2023-04-23T06:40:15;92403.63;;;12.20;100.00
21658;BME280;10990;48.174;9.782;2023-04-23T06:42:42;92410.06;;;12.24;100.00
21658;BME280;10990;48.174;9.782;2023-04-23T06:45:36;92419.78;;;12.35;100.00
21658;BME280;10990;48.174;9.782;2023-04-23T06:48:03;92425.06;;;12.35;100.00
21658;BME280;10990;48.174;9.782;2023-04-23T06:50:30;92438.63;;;12.39;100.00
21658;BME280;10990;48.174;9.782;2023-04-23T06:52:57;92452.53;;;12.29;100.00
21658;BME280;10990;48.174;9.782;2023-04-23T06:55:23;92460.78;;;12.32;100.00
21658;BME280;10990;48.174;9.782;2023-04-23T06:57:51;92469.31;;;12.34;100.00
21658;BME280;10990;48.174;9.782;2023-04-23T07:00:18;92493.56;;;12.26;100.00
21658;BME280;10990;48.174;9.782;2023-04-23T07:02:46;92504.06;;;12.21;100.00
21658;BME280;10990;48.174;9.782;2023-04-23T07:05:15;92501.81;;;12.30;100.00
21658;BME280;10990;48.174;9.782;2023-04-23T07:07:43;92495.44;;;12.43;100.00
21658;BME280;10990;48.174;9.782;2023-04-23T07:10:10;92536.19;;;12.25;100.00
21658;BME280;10990;48.174;9.782;2023-04-23T07:12:38;92533.97;;;12.33;100.00
21658;BME280;10990;48.174;9.782;2023-04-23T07:15:06;92528.28;;;12.42;100.00
21658;BME280;10990;48.174;9.782;2023-04-23T07:17:33;92564.97;;;12.21;100.00
21658;BME280;10990;48.174;9.782;2023-04-23T07:20:01;92551.03;;;12.26;100.00
21658;BME280;10990;48.174;9.782;2023-04-23T07:22:31;92568.25;;;12.40;100.00
21658;BME280;10990;48.174;9.782;2023-04-23T07:24:58;92576.41;;;12.50;100.00
21658;BME280;10990;48.174;9.782;2023-04-23T07:27:25;92591.84;;;12.53;100.00
21658;BME280;10990;48.174;9.782;2023-04-23T07:29:51;92563.25;;;13.01;100.00
21658;BME280;10990;48.174;9.782;2023-04-23T07:32:18;92623.28;;;13.07;100.00
21658;BME280;10990;48.174;9.782;2023-04-23T07:34:47;92697.56;;;13.36;100.00
21658;BME280;10990;48.174;9.782;2023-04-23T07:37:16;92748.53;;;13.50;100.00
21658;BME280;10990;48.174;9.782;2023-04-23T07:39:42;92760.56;;;14.03;100.00
21658;BME280;10990;48.174;9.782;2023-04-23T07:42:09;92819.09;;;14.25;100.00
21658;BME280;10990;48.174;9.782;2023-04-23T07:44:36;92863.25;;;14.76;100.00
21658;BME280;10990;48.174;9.782;2023-04-23T07:47:03;92994.88;;;14.28;100.00
21658;BME280;10990;48.174;9.782;2023-04-23T07:49:30;93081.25;;;14.14;100.00
21658;BME280;10990;48.174;9.782;2023-04-23T07:51:56;93128.19;;;13.97;100.00
21658;BME280;10990;48.174;9.782;2023-04-23T07:54:25;93150.34;;;13.90;100.00
21658;BME280;10990;48.174;9.782;2023-04-23T07:56:52;93080.38;;;13.97;100.00
21658;BME280;10990;48.174;9.782;2023-04-23T07:59:18;93070.72;;;14.07;100.00
21658;BME280;10990;48.174;9.782;2023-04-23T08:01:45;93068.81;;;13.91;100.00
21658;BME280;10990;48.174;9.782;2023-04-23T08:04:12;93052.06;;;14.02;100.00
21658;BME280;10990;48.174;9.782;2023-04-23T08:06:39;93056.53;;;14.02;100.00
21658;BME280;10990;48.174;9.782;2023-04-23T08:09:06;93077.00;;;13.89;100.00
21658;BME280;10990;48.174;9.782;2023-04-23T08:11:35;93086.47;;;13.97;100.00
21658;BME280;10990;48.174;9.782;2023-04-23T08:14:01;93100.47;;;13.81;100.00
21658;BME280;10990;48.174;9.782;2023-04-23T08:16:28;93110.63;;;13.84;100.00
21658;BME280;10990;48.174;9.782;2023-04-23T08:18:56;93110.88;;;13.94;100.00
21658;BME280;10990;48.174;9.782;2023-04-23T08:21:23;93075.44;;;14.29;100.00
21658;BME280;10990;48.174;9.782;2023-04-23T08:23:51;93110.69;;;14.36;100.00
21658;BME280;10990;48.174;9.782;2023-04-23T08:26:17;93152.06;;;14.32;100.00
21658;BME280;10990;48.174;9.782;2023-04-23T08:28:46;93159.16;;;14.03;100.00
21658;BME280;10990;48.174;9.782;2023-04-23T08:31:13;93174.28;;;13.79;100.00
21658;BME280;10990;48.174;9.782;2023-04-23T08:33:40;93166.75;;;13.76;100.00
21658;BME280;10990;48.174;9.782;2023-04-23T08:36:07;93165.38;;;13.73;100.00
21658;BME280;10990;48.174;9.782;2023-04-23T08:38:34;93179.69;;;13.72;100.00
21658;BME280;10990;48.174;9.782;2023-04-23T08:41:04;93175.66;;;13.81;100.00
21658;BME280;10990;48.174;9.782;2023-04-23T08:43:37;93186.63;;;13.85;100.00
21658;BME280;10990;48.174;9.782;2023-04-23T08:46:11;93195.78;;;13.89;100.00
21658;BME280;10990;48.174;9.782;2023-04-23T08:48:38;93182.22;;;14.38;100.00
21658;BME280;10990;48.174;9.782;2023-04-23T08:51:07;93227.88;;;14.34;100.00
21658;BME280;10990;48.174;9.782;2023-04-23T08:53:36;93237.13;;;14.32;100.00
21658;BME280;10990;48.174;9.782;2023-04-23T08:56:04;93245.47;;;14.47;100.00
21658;BME280;10990;48.174;9.782;2023-04-23T08:58:32;93277.13;;;14.37;100.00
21658;BME280;10990;48.174;9.782;2023-04-23T09:01:00;93293.91;;;14.38;100.00
21658;BME280;10990;48.174;9.782;2023-04-23T09:03:28;93289.63;;;14.48;100.00
21658;BME280;10990;48.174;9.782;2023-04-23T09:05:55;93326.28;;;14.46;100.00
21658;BME280;10990;48.174;9.782;2023-04-23T09:08:22;93341.13;;;14.54;100.00
21658;BME280;10990;48.174;9.782;2023-04-23T09:10:49;93328.84;;;14.76;100.00
21658;BME280;10990;48.174;9.782;2023-04-23T09:13:17;93382.06;;;14.53;100.00
21658;BME280;10990;48.174;9.782;2023-04-23T09:15:44;93399.03;;;14.52;100.00
21658;BME280;10990;48.174;9.782;2023-04-23T09:18:11;93424.03;;;14.74;100.00
21658;BME280;10990;48.174;9.782;2023-04-23T09:20:39;93438.75;;;14.77;100.00
21658;BME280;10990;48.174;9.782;2023-04-23T09:23:06;93449.41;;;15.00;100.00
21658;BME280;10990;48.174;9.782;2023-04-23T09:25:33;93474.53;;;15.16;100.00
21658;BME280;10990;48.174;9.782;2023-04-23T09:28:00;93503.25;;;15.73;100.00
21658;BME280;10990;48.174;9.782;2023-04-23T09:30:27;93611.59;;;16.55;100.00
21658;BME280;10990;48.174;9.782;2023-04-23T09:32:55;93695.69;;;16.57;100.00
21658;BME280;10990;48.174;9.782;2023-04-23T09:35:21;93805.34;;;16.68;100.00
21658;BME280;10990;48.174;9.782;2023-04-23T09:37:51;93881.38;;;17.36;100.00
21658;BME280;10990;48.174;9.782;2023-04-23T09:40:19;94009.25;;;18.03;100.00
21658;BME280;10990;48.174;9.782;2023-04-23T09:42:47;94168.34;;;17.77;100.00
21658;BME280;10990;48.174;9.782;2023-04-23T09:45:15;94104.72;;;18.26;100.00
21658;BME280;10990;48.174;9.782;2023-04-23T09:47:48;94269.38;;;18.52;100.00
21658;BME280;10990;48.174;9.782;2023-04-23T09:50:15;94403.03;;;18.53;100.00
21658;BME280;10990;48.174;9.782;2023-04-23T09:52:41;94439.13;;;18.51;100.00
21658;BME280;10990;48.174;9.782;2023-04-23T09:55:11;94504.56;;;18.67;100.00
21658;BME280;10990;48.174;9.782;2023-04-23T09:57:40;94613.03;;;19.24;100.00
21658;BME280;10990;48.174;9.782;2023-04-23T10:00:15;94692.38;;;19.86;100.00
21658;BME280;10990;48.174;9.782;2023-04-23T10:02:45;94796.22;;;19.85;100.00
21658;BME280;10990;48.174;9.782;2023-04-23T10:05:14;94826.25;;;20.06;100.00
21658;BME280;10990;48.174;9.782;2023-04-23T10:07:42;94889.38;;;19.97;100.00
21658;BME280;10990;48.174;9.782;2023-04-23T10:10:12;94920.25;;;20.18;100.00
21658;BME280;10990;48.174;9.782;2023-04-23T10:12:39;94919.84;;;20.32;100.00
21658;BME280;10990;48.174;9.782;2023-04-23T10:15:06;94883.25;;;20.50;100.00
21658;BME280;10990;48.174;9.782;2023-04-23T10:17:34;94942.56;;;20.18;100.00
21658;BME280;10990;48.174;9.782;2023-04-23T10:20:02;94959.00;;;20.40;100.00
21658;BME280;10990;48.174;9.782;2023-04-23T10:22:30;95003.16;;;21.04;100.00
21658;BME280;10990;48.174;9.782;2023-04-23T10:25:00;95034.22;;;21.00;100.00
21658;BME280;10990;48.174;9.782;2023-04-23T10:27:32;95052.47;;;20.98;100.00
21658;BME280;10990;48.174;9.782;2023-04-23T10:30:00;95054.50;;;20.18;100.00
21658;BME280;10990;48.174;9.782;2023-04-23T10:32:29;95061.81;;;20.47;100.00
21658;BME280;10990;48.174;9.782;2023-04-23T10:34:56;95071.25;;;20.87;100.00
21658;BME280;10990;48.174;9.782;2023-04-23T10:37:23;95073.56;;;20.83;100.00
21658;BME280;10990;48.174;9.782;2023-04-23T10:39:53;95087.41;;;20.98;100.00
21658;BME280;10990;48.174;9.782;2023-04-23T10:42:21;95096.69;;;21.14;100.00
21658;BME280;10990;48.174;9.782;2023-04-23T10:44:49;95109.81;;;19.82;100.00
21658;BME280;10990;48.174;9.782;2023-04-23T10:47:21;95080.38;;;20.97;100.00
21658;BME280;10990;48.174;9.782;2023-04-23T10:49:48;95085.81;;;21.09;100.00
21658;BME280;10990;48.174;9.782;2023-04-23T10:52:17;95095.00;;;21.32;100.00
21658;BME280;10990;48.174;9.782;2023-04-23T10:54:47;95106.50;;;20.23;100.00
21658;BME280;10990;48.174;9.782;2023-04-23T10:57:14;95100.94;;;20.62;100.00
21658;BME280;10990;48.174;9.782;2023-04-23T10:59:52;95099.44;;;21.26;100.00
21658;BME280;10990;48.174;9.782;2023-04-23T11:02:19;95090.59;;;20.77;100.00
21658;BME280;10990;48.174;9.782;2023-04-23T11:04:53;95077.22;;;21.00;100.00
21658;BME280;10990;48.174;9.782;2023-04-23T11:07:24;95076.94;;;20.78;100.00
21658;BME280;10990;48.174;9.782;2023-04-23T11:09:51;95068.13;;;20.71;100.00
21658;BME280;10990;48.174;9.782;2023-04-23T11:12:31;95072.34;;;20.12;100.00
21658;BME280;10990;48.174;9.782;2023-04-23T11:15:09;95054.53;;;19.99;100.00
21658;BME280;10990;48.174;9.782;2023-04-23T11:17:59;95066.97;;;19.93;100.00
21658;BME280;10990;48.174;9.782;2023-04-23T11:20:26;95071.13;;;19.64;100.00
21658;BME280;10990;48.174;9.782;2023-04-23T11:22:53;95068.63;;;19.44;100.00
21658;BME280;10990;48.174;9.782;2023-04-23T11:25:21;95058.53;;;19.40;100.00
21658;BME280;10990;48.174;9.782;2023-04-23T11:27:49;95064.78;;;19.65;100.00
21658;BME280;10990;48.174;9.782;2023-04-23T11:30:19;95051.13;;;19.67;100.00
21658;BME280;10990;48.174;9.782;2023-04-23T11:32:47;95051.44;;;19.77;100.00
21658;BME280;10990;48.174;9.782;2023-04-23T11:35:15;95057.63;;;19.53;100.00
21658;BME280;10990;48.174;9.782;2023-04-23T11:37:43;95056.03;;;19.45;100.00
21658;BME280;10990;48.174;9.782;2023-04-23T11:40:12;95051.44;;;19.52;100.00
21658;BME280;10990;48.174;9.782;2023-04-23T11:42:44;95056.13;;;19.82;100.00
21658;BME280;10990;48.174;9.782;2023-04-23T11:45:17;95054.34;;;19.76;100.00
21658;BME280;10990;48.174;9.782;2023-04-23T11:47:45;95034.03;;;20.05;100.00
21658;BME280;10990;48.174;9.782;2023-04-23T11:50:16;95045.66;;;20.17;100.00
21658;BME280;10990;48.174;9.782;2023-04-23T11:52:43;95057.28;;;20.11;100.00
21658;BME280;10990;48.174;9.782;2023-04-23T11:55:10;95039.28;;;20.30;100.00
21658;BME280;10990;48.174;9.782;2023-04-23T11:57:40;95052.34;;;19.89;100.00
21658;BME280;10990;48.174;9.782;2023-04-23T12:00:13;95040.28;;;20.17;100.00
21658;BME280;10990;48.174;9.782;2023-04-23T12:02:50;95041.38;;;19.73;100.00
21658;BME280;10990;48.174;9.782;2023-04-23T12:05:19;95039.19;;;19.63;100.00
21658;BME280;10990;48.174;9.782;2023-04-23T12:07:48;95040.81;;;19.14;100.00
21658;BME280;10990;48.174;9.782;2023-04-23T12:10:16;95030.69;;;19.41;100.00
21658;BME280;10990;48.174;9.782;2023-04-23T12:12:47;95012.75;;;19.85;100.00
21658;BME280;10990;48.174;9.782;2023-04-23T12:15:14;95011.94;;;19.84;100.00
21658;BME280;10990;48.174;9.782;2023-04-23T12:17:40;95018.34;;;20.20;100.00
21658;BME280;10990;48.174;9.782;2023-04-23T12:20:15;95014.28;;;20.29;100.00
21658;BME280;10990;48.174;9.782;2023-04-23T12:22:42;95006.09;;;20.73;100.00
21658;BME280;10990;48.174;9.782;2023-04-23T12:25:09;95011.19;;;19.77;100.00
21658;BME280;10990;48.174;9.782;2023-04-23T12:27:38;95009.53;;;20.31;100.00
21658;BME280;10990;48.174;9.782;2023-04-23T12:30:07;95006.41;;;20.53;100.00
21658;BME280;10990;48.174;9.782;2023-04-23T12:32:34;95014.31;;;19.74;100.00
21658;BME280;10990;48.174;9.782;2023-04-23T12:35:01;95014.16;;;19.69;100.00
21658;BME280;10990;48.174;9.782;2023-04-23T12:37:35;94998.53;;;20.03;100.00
21658;BME280;10990;48.174;9.782;2023-04-23T12:40:02;94999.53;;;20.20;100.00
21658;BME280;10990;48.174;9.782;2023-04-23T12:42:31;95018.78;;;19.99;100.00
21658;BME280;10990;48.174;9.782;2023-04-23T12:45:05;94990.50;;;20.33;100.00
21658;BME280;10990;48.174;9.782;2023-04-23T12:47:32;94988.16;;;20.55;100.00
21658;BME280;10990;48.174;9.782;2023-04-23T12:49:59;94994.94;;;20.57;100.00
21658;BME280;10990;48.174;9.782;2023-04-23T12:52:26;94986.72;;;20.82;100.00
21658;BME280;10990;48.174;9.782;2023-04-23T12:54:54;94993.59;;;20.00;100.00